| stationDateMetric | stationTimeNoSecs | timestamp | outsideTemp | outsideHumidity | barometer | windGustSpeed_ms | outsideDewPt | windGustSpeed | windDirectionDegrees | windDirection | windChill | windSpeed | rainRate | dailyRainMM | totalRain | ET | solarRad | UV | outsideHeatIndex |
|---|---|---|---|---|---|---|---|---|---|---|---|---|---|---|---|---|---|---|---|
| 2026-05-04 | 08:40:00 | 2026-05-04 08:41:01 | 12.8 | 84.0 | 1017.1 | 0.0 | 10.2 | 0.0 | 5.0 | N | 12.8 | 0.0 | 0.0 | 0.0 | 39.0 | 0.1 | 475.0 | 0.8 | 12.8 |
| 2026-05-04 | 08:35:00 | 2026-05-04 08:36:01 | 12.6 | 85.0 | 1017.1 | 0.0 | 10.1 | 0.0 | 5.0 | N | 12.6 | 0.0 | 0.0 | 0.0 | 39.0 | 0.1 | 478.0 | 0.8 | 12.6 |
| 2026-05-04 | 08:30:00 | 2026-05-04 08:31:01 | 12.2 | 86.0 | 1017.0 | 0.0 | 9.9 | 0.0 | 5.0 | N | 12.2 | 0.0 | 0.0 | 0.0 | 39.0 | 0.1 | 431.0 | 0.7 | 12.2 |
| 2026-05-04 | 08:25:00 | 2026-05-04 08:26:01 | 11.8 | 88.0 | 1017.1 | 0.0 | 9.9 | 0.0 | 5.0 | N | 11.8 | 0.0 | 0.0 | 0.0 | 39.0 | 0.1 | 397.0 | 0.6 | 11.8 |
| 2026-05-04 | 08:20:00 | 2026-05-04 08:21:01 | 11.4 | 90.0 | 1017.1 | 0.0 | 9.9 | 0.0 | 5.0 | N | 11.4 | 0.0 | 0.0 | 0.0 | 39.0 | 0.1 | 411.0 | 0.6 | 11.4 |
| 2026-05-04 | 08:15:00 | 2026-05-04 08:16:01 | 11.1 | 90.0 | 1017.2 | 0.0 | 9.5 | 0.0 | 5.0 | N | 11.1 | 0.0 | 0.0 | 0.0 | 39.0 | 0.1 | 362.0 | 0.5 | 11.1 |
| 2026-05-04 | 08:10:00 | 2026-05-04 08:11:01 | 10.7 | 91.0 | 1017.2 | 0.0 | 9.3 | 0.0 | 5.0 | N | 10.7 | 0.0 | 0.0 | 0.0 | 39.0 | 0.1 | 269.0 | 0.5 | 10.7 |
| 2026-05-04 | 08:05:00 | 2026-05-04 08:06:01 | 10.4 | 91.0 | 1017.2 | 0.0 | 9.0 | 0.0 | 5.0 | N | 10.4 | 0.0 | 0.0 | 0.0 | 39.0 | 0.1 | 137.0 | 0.0 | 10.4 |
| 2026-05-04 | 08:00:00 | 2026-05-04 08:01:01 | 10.2 | 91.0 | 1017.2 | 0.0 | 8.8 | 0.0 | 5.0 | N | 10.2 | 0.0 | 0.0 | 0.0 | 39.0 | 0.1 | 79.0 | 0.0 | 10.2 |
| 2026-05-04 | 07:55:00 | 2026-05-04 07:56:01 | 9.9 | 92.0 | 1017.2 | 0.0 | 8.7 | 0.0 | 5.0 | N | 9.9 | 0.0 | 0.0 | 0.0 | 39.0 | 0.0 | 70.0 | 0.0 | 9.9 |
| 2026-05-04 | 07:50:00 | 2026-05-04 07:51:01 | 9.7 | 91.0 | 1017.2 | 0.0 | 8.3 | 0.0 | 5.0 | N | 9.7 | 0.0 | 0.0 | 0.0 | 39.0 | 0.0 | 70.0 | 0.0 | 9.7 |
| 2026-05-04 | 07:45:00 | 2026-05-04 07:46:01 | 9.4 | 92.0 | 1017.2 | 0.0 | 8.2 | 0.0 | 5.0 | N | 9.4 | 0.0 | 0.0 | 0.0 | 39.0 | 0.0 | 67.0 | 0.0 | 9.4 |
| 2026-05-04 | 07:40:00 | 2026-05-04 07:41:01 | 9.2 | 92.0 | 1017.1 | 0.0 | 7.9 | 0.0 | 5.0 | N | 9.2 | 0.0 | 0.0 | 0.0 | 39.0 | 0.0 | 62.0 | 0.0 | 9.2 |
| 2026-05-04 | 07:35:00 | 2026-05-04 07:36:01 | 8.9 | 93.0 | 1017.1 | 0.0 | 7.9 | 0.0 | 5.0 | N | 8.9 | 0.0 | 0.0 | 0.0 | 39.0 | 0.0 | 60.0 | 0.0 | 8.9 |
| 2026-05-04 | 07:30:00 | 2026-05-04 07:31:01 | 8.8 | 93.0 | 1017.2 | 0.0 | 7.7 | 0.0 | 5.0 | N | 8.8 | 0.0 | 0.0 | 0.0 | 39.0 | 0.0 | 44.0 | 0.0 | 8.8 |
| 2026-05-04 | 07:25:00 | 2026-05-04 07:26:02 | 8.6 | 93.0 | 1017.2 | 0.0 | 7.5 | 0.0 | 5.0 | N | 8.6 | 0.0 | 0.0 | 0.0 | 39.0 | 0.0 | 46.0 | 0.0 | 8.6 |
| 2026-05-04 | 07:20:00 | 2026-05-04 07:21:01 | 8.3 | 93.0 | 1017.2 | 0.0 | 7.3 | 0.0 | 5.0 | N | 8.3 | 0.0 | 0.0 | 0.0 | 39.0 | 0.0 | 44.0 | 0.0 | 8.3 |
| 2026-05-04 | 07:15:00 | 2026-05-04 07:16:01 | 8.1 | 94.0 | 1017.2 | 0.0 | 7.2 | 0.0 | 5.0 | N | 8.1 | 0.0 | 0.0 | 0.0 | 39.0 | 0.0 | 51.0 | 0.0 | 8.1 |
| 2026-05-04 | 07:10:00 | 2026-05-04 07:11:01 | 7.9 | 94.0 | 1017.1 | 0.0 | 7.0 | 0.0 | 5.0 | N | 7.9 | 0.0 | 0.0 | 0.0 | 39.0 | 0.0 | 51.0 | 0.0 | 7.9 |
| 2026-05-04 | 07:05:00 | 2026-05-04 07:06:01 | 7.7 | 94.0 | 1017.1 | 0.0 | 6.8 | 0.0 | 5.0 | N | 7.7 | 0.0 | 0.0 | 0.0 | 39.0 | 0.0 | 56.0 | 0.0 | 7.7 |
| 2026-05-04 | 07:00:00 | 2026-05-04 07:01:02 | 7.5 | 94.0 | 1017.2 | 0.0 | 6.6 | 0.0 | 5.0 | N | 7.5 | 0.0 | 0.0 | 0.0 | 39.0 | 0.0 | 54.0 | 0.0 | 7.5 |
| 2026-05-04 | 06:55:00 | 2026-05-04 06:56:01 | 7.3 | 94.0 | 1017.1 | 0.0 | 6.4 | 0.0 | 5.0 | N | 7.3 | 0.0 | 0.0 | 0.0 | 39.0 | 0.0 | 51.0 | 0.0 | 7.3 |
| 2026-05-04 | 06:50:00 | 2026-05-04 06:51:01 | 7.1 | 94.0 | 1017.1 | 0.0 | 6.2 | 0.0 | 5.0 | N | 7.1 | 0.0 | 0.0 | 0.0 | 39.0 | 0.0 | 53.0 | 0.0 | 7.1 |
| 2026-05-04 | 06:45:00 | 2026-05-04 06:46:01 | 7.0 | 93.0 | 1017.0 | 0.0 | 5.9 | 0.0 | 5.0 | N | 7.0 | 0.0 | 0.0 | 0.0 | 39.0 | 0.0 | 47.0 | 0.0 | 7.0 |
| 2026-05-04 | 06:40:00 | 2026-05-04 06:41:01 | 6.9 | 93.0 | 1017.0 | 0.0 | 5.8 | 0.0 | 5.0 | N | 6.9 | 0.0 | 0.0 | 0.0 | 39.0 | 0.0 | 44.0 | 0.0 | 6.9 |
| 2026-05-04 | 06:35:00 | 2026-05-04 06:36:02 | 6.8 | 93.0 | 1016.9 | 0.0 | 5.7 | 0.0 | 5.0 | N | 6.8 | 0.0 | 0.0 | 0.0 | 39.0 | 0.0 | 33.0 | 0.0 | 6.8 |
| 2026-05-04 | 06:30:00 | 2026-05-04 06:31:01 | 6.7 | 93.0 | 1016.8 | 0.0 | 5.6 | 0.0 | 5.0 | N | 6.7 | 0.0 | 0.0 | 0.0 | 39.0 | 0.0 | 32.0 | 0.0 | 6.7 |
| 2026-05-04 | 06:25:00 | 2026-05-04 06:26:01 | 6.6 | 93.0 | 1016.8 | 0.0 | 5.6 | 0.0 | 5.0 | N | 6.6 | 0.0 | 0.0 | 0.0 | 39.0 | 0.0 | 32.0 | 0.0 | 6.6 |
| 2026-05-04 | 06:20:00 | 2026-05-04 06:21:02 | 6.6 | 93.0 | 1016.8 | 0.0 | 5.5 | 0.0 | 5.0 | N | 6.6 | 0.0 | 0.0 | 0.0 | 39.0 | 0.0 | 28.0 | 0.0 | 6.6 |
| 2026-05-04 | 06:15:00 | 2026-05-04 06:16:02 | 6.5 | 93.0 | 1016.8 | 0.0 | 5.5 | 0.0 | 5.0 | N | 6.5 | 0.0 | 0.0 | 0.0 | 39.0 | 0.0 | 23.0 | 0.0 | 6.5 |
| 2026-05-04 | 06:10:00 | 2026-05-04 06:11:01 | 6.5 | 93.0 | 1016.8 | 0.0 | 5.5 | 0.0 | 5.0 | N | 6.5 | 0.0 | 0.0 | 0.0 | 39.0 | 0.0 | 19.0 | 0.0 | 6.5 |
| 2026-05-04 | 06:05:00 | 2026-05-04 06:06:02 | 6.5 | 92.0 | 1016.9 | 0.0 | 5.3 | 0.0 | 5.0 | N | 6.5 | 0.0 | 0.0 | 0.0 | 39.0 | 0.0 | 18.0 | 0.0 | 6.5 |
| 2026-05-04 | 06:00:00 | 2026-05-04 06:01:01 | 6.4 | 92.0 | 1016.9 | 0.0 | 5.2 | 0.0 | 5.0 | N | 6.4 | 0.0 | 0.0 | 0.0 | 39.0 | 0.0 | 14.0 | 0.0 | 6.4 |
| 2026-05-04 | 05:55:00 | 2026-05-04 05:56:01 | 6.5 | 92.0 | 1016.9 | 0.0 | 5.3 | 0.0 | 5.0 | N | 6.5 | 0.0 | 0.0 | 0.0 | 39.0 | 0.0 | 11.0 | 0.0 | 6.5 |
| 2026-05-04 | 05:50:00 | 2026-05-04 05:51:01 | 6.5 | 92.0 | 1017.0 | 0.0 | 5.3 | 0.0 | 5.0 | N | 6.5 | 0.0 | 0.0 | 0.0 | 39.0 | 0.0 | 7.0 | 0.0 | 6.5 |
| 2026-05-04 | 05:45:00 | 2026-05-04 05:46:01 | 6.6 | 92.0 | 1016.9 | 0.0 | 5.3 | 0.0 | 5.0 | N | 6.6 | 0.0 | 0.0 | 0.0 | 39.0 | 0.0 | 5.0 | 0.0 | 6.6 |
| 2026-05-04 | 05:40:00 | 2026-05-04 05:41:01 | 6.6 | 92.0 | 1016.9 | 0.0 | 5.3 | 0.0 | 5.0 | N | 6.6 | 0.0 | 0.0 | 0.0 | 39.0 | 0.0 | 0.0 | 0.0 | 6.6 |
| 2026-05-04 | 05:35:00 | 2026-05-04 05:36:01 | 6.6 | 92.0 | 1016.9 | 0.0 | 5.4 | 0.0 | 5.0 | N | 6.6 | 0.0 | 0.0 | 0.0 | 39.0 | 0.0 | 0.0 | 0.0 | 6.6 |
| 2026-05-04 | 05:30:00 | 2026-05-04 05:31:02 | 6.7 | 91.0 | 1016.8 | 0.0 | 5.4 | 0.0 | 5.0 | N | 6.7 | 0.0 | 0.0 | 0.0 | 39.0 | 0.0 | 0.0 | 0.0 | 6.7 |
| 2026-05-04 | 05:25:00 | 2026-05-04 05:26:01 | 6.8 | 92.0 | 1016.8 | 0.0 | 5.6 | 0.0 | 5.0 | N | 6.8 | 0.0 | 0.0 | 0.0 | 39.0 | 0.0 | 0.0 | 0.0 | 6.8 |
| 2026-05-04 | 05:20:00 | 2026-05-04 05:21:01 | 6.8 | 92.0 | 1016.8 | 0.0 | 5.6 | 0.0 | 5.0 | N | 6.8 | 0.0 | 0.0 | 0.0 | 39.0 | 0.0 | 0.0 | 0.0 | 6.8 |
| 2026-05-04 | 05:15:00 | 2026-05-04 05:16:01 | 6.9 | 92.0 | 1016.8 | 0.0 | 5.7 | 0.0 | 5.0 | N | 6.9 | 0.0 | 0.0 | 0.0 | 39.0 | 0.0 | 0.0 | 0.0 | 6.9 |
| 2026-05-04 | 05:10:00 | 2026-05-04 05:11:01 | 6.9 | 91.0 | 1016.8 | 0.0 | 5.5 | 0.0 | 5.0 | N | 6.9 | 0.0 | 0.0 | 0.0 | 39.0 | 0.0 | 0.0 | 0.0 | 6.9 |
| 2026-05-04 | 05:05:00 | 2026-05-04 05:06:01 | 6.9 | 92.0 | 1016.9 | 0.0 | 5.7 | 0.0 | 5.0 | N | 6.9 | 0.0 | 0.0 | 0.0 | 39.0 | 0.0 | 0.0 | 0.0 | 6.9 |
| 2026-05-04 | 05:00:00 | 2026-05-04 05:01:01 | 6.9 | 91.0 | 1016.9 | 0.0 | 5.6 | 0.0 | 5.0 | N | 6.9 | 0.0 | 0.0 | 0.0 | 39.0 | 0.0 | 0.0 | 0.0 | 6.9 |
| 2026-05-04 | 04:55:00 | 2026-05-04 04:56:01 | 7.0 | 91.0 | 1016.9 | 0.0 | 5.6 | 0.0 | 5.0 | N | 7.0 | 0.0 | 0.0 | 0.0 | 39.0 | 0.0 | 0.0 | 0.0 | 7.0 |
| 2026-05-04 | 04:50:00 | 2026-05-04 04:51:01 | 7.0 | 91.0 | 1017.0 | 0.0 | 5.6 | 0.0 | 5.0 | N | 7.0 | 0.0 | 0.0 | 0.0 | 39.0 | 0.0 | 0.0 | 0.0 | 7.0 |
| 2026-05-04 | 04:45:00 | 2026-05-04 04:46:01 | 7.1 | 91.0 | 1017.0 | 0.0 | 5.7 | 0.0 | 5.0 | N | 7.1 | 0.0 | 0.0 | 0.0 | 39.0 | 0.0 | 0.0 | 0.0 | 7.1 |
| 2026-05-04 | 04:40:00 | 2026-05-04 04:41:01 | 7.1 | 91.0 | 1017.0 | 0.0 | 5.7 | 0.0 | 5.0 | N | 7.1 | 0.0 | 0.0 | 0.0 | 39.0 | 0.0 | 0.0 | 0.0 | 7.1 |
| 2026-05-04 | 04:35:00 | 2026-05-04 04:36:01 | 7.2 | 91.0 | 1017.0 | 0.0 | 5.8 | 0.0 | 5.0 | N | 7.2 | 0.0 | 0.0 | 0.0 | 39.0 | 0.0 | 0.0 | 0.0 | 7.2 |
| 2026-05-04 | 04:30:00 | 2026-05-04 04:31:01 | 7.2 | 91.0 | 1017.0 | 0.0 | 5.9 | 0.0 | 5.0 | N | 7.2 | 0.0 | 0.0 | 0.0 | 39.0 | 0.0 | 0.0 | 0.0 | 7.2 |
| 2026-05-04 | 04:25:00 | 2026-05-04 04:26:01 | 7.3 | 91.0 | 1017.0 | 0.0 | 5.9 | 0.0 | 5.0 | N | 7.3 | 0.0 | 0.0 | 0.0 | 39.0 | 0.0 | 0.0 | 0.0 | 7.3 |
| 2026-05-04 | 04:20:00 | 2026-05-04 04:21:01 | 7.3 | 91.0 | 1017.0 | 0.0 | 6.0 | 0.0 | 5.0 | N | 7.3 | 0.0 | 0.0 | 0.0 | 39.0 | 0.0 | 0.0 | 0.0 | 7.3 |
| 2026-05-04 | 04:15:00 | 2026-05-04 04:16:01 | 7.4 | 91.0 | 1016.9 | 0.0 | 6.0 | 0.0 | 5.0 | N | 7.4 | 0.0 | 0.0 | 0.0 | 39.0 | 0.0 | 0.0 | 0.0 | 7.4 |
| 2026-05-04 | 04:10:00 | 2026-05-04 04:11:01 | 7.4 | 91.0 | 1016.9 | 0.0 | 6.1 | 0.0 | 5.0 | N | 7.4 | 0.0 | 0.0 | 0.0 | 39.0 | 0.0 | 0.0 | 0.0 | 7.4 |
| 2026-05-04 | 04:05:00 | 2026-05-04 04:06:01 | 7.5 | 91.0 | 1016.9 | 0.0 | 6.1 | 0.0 | 5.0 | N | 7.5 | 0.0 | 0.0 | 0.0 | 39.0 | 0.0 | 0.0 | 0.0 | 7.5 |
| 2026-05-04 | 04:00:00 | 2026-05-04 04:01:01 | 7.6 | 90.0 | 1017.0 | 0.0 | 6.0 | 0.0 | 5.0 | N | 7.6 | 0.0 | 0.0 | 0.0 | 39.0 | 0.0 | 0.0 | 0.0 | 7.6 |
| 2026-05-04 | 03:55:00 | 2026-05-04 03:56:01 | 7.6 | 90.0 | 1017.1 | 0.0 | 6.0 | 0.0 | 5.0 | N | 7.6 | 0.0 | 0.0 | 0.0 | 39.0 | 0.0 | 0.0 | 0.0 | 7.6 |
| 2026-05-04 | 03:50:00 | 2026-05-04 03:51:01 | 7.6 | 90.0 | 1017.1 | 0.0 | 6.1 | 0.0 | 5.0 | N | 7.6 | 0.0 | 0.0 | 0.0 | 39.0 | 0.0 | 0.0 | 0.0 | 7.6 |
| 2026-05-04 | 03:45:00 | 2026-05-04 03:46:01 | 7.7 | 90.0 | 1017.1 | 0.0 | 6.1 | 0.0 | 5.0 | N | 7.7 | 0.0 | 0.0 | 0.0 | 39.0 | 0.0 | 0.0 | 0.0 | 7.7 |
| 2026-05-04 | 03:40:00 | 2026-05-04 03:41:01 | 7.7 | 90.0 | 1017.0 | 0.0 | 6.2 | 0.0 | 5.0 | N | 7.7 | 0.0 | 0.0 | 0.0 | 39.0 | 0.0 | 0.0 | 0.0 | 7.7 |
| 2026-05-04 | 03:35:00 | 2026-05-04 03:36:01 | 7.8 | 90.0 | 1017.0 | 0.0 | 6.2 | 0.0 | 5.0 | N | 7.8 | 0.0 | 0.0 | 0.0 | 39.0 | 0.0 | 0.0 | 0.0 | 7.8 |
| 2026-05-04 | 03:30:00 | 2026-05-04 03:31:01 | 7.9 | 90.0 | 1017.0 | 0.0 | 6.4 | 0.0 | 5.0 | N | 7.9 | 0.0 | 0.0 | 0.0 | 39.0 | 0.0 | 0.0 | 0.0 | 7.9 |
| 2026-05-04 | 03:25:00 | 2026-05-04 03:26:01 | 7.9 | 90.0 | 1017.0 | 0.0 | 6.4 | 0.0 | 5.0 | N | 7.9 | 0.0 | 0.0 | 0.0 | 39.0 | 0.0 | 0.0 | 0.0 | 7.9 |
| 2026-05-04 | 03:20:00 | 2026-05-04 03:21:01 | 8.0 | 90.0 | 1017.0 | 0.0 | 6.5 | 0.0 | 5.0 | N | 8.0 | 0.0 | 0.0 | 0.0 | 39.0 | 0.0 | 0.0 | 0.0 | 8.0 |
| 2026-05-04 | 03:15:00 | 2026-05-04 03:16:01 | 8.1 | 90.0 | 1017.0 | 0.0 | 6.5 | 0.0 | 5.0 | N | 8.1 | 0.0 | 0.0 | 0.0 | 39.0 | 0.0 | 0.0 | 0.0 | 8.1 |
| 2026-05-04 | 03:10:00 | 2026-05-04 03:11:01 | 8.1 | 90.0 | 1017.0 | 0.0 | 6.6 | 0.0 | 5.0 | N | 8.1 | 0.0 | 0.0 | 0.0 | 39.0 | 0.0 | 0.0 | 0.0 | 8.1 |
| 2026-05-04 | 03:05:00 | 2026-05-04 03:06:01 | 8.2 | 90.0 | 1017.0 | 0.0 | 6.6 | 0.0 | 5.0 | N | 8.2 | 0.0 | 0.0 | 0.0 | 39.0 | 0.0 | 0.0 | 0.0 | 8.2 |
| 2026-05-04 | 03:00:00 | 2026-05-04 03:01:01 | 8.2 | 90.0 | 1017.0 | 0.0 | 6.7 | 0.0 | 5.0 | N | 8.2 | 0.0 | 0.0 | 0.0 | 39.0 | 0.0 | 0.0 | 0.0 | 8.2 |
| 2026-05-04 | 02:55:00 | 2026-05-04 02:56:01 | 8.3 | 90.0 | 1017.0 | 0.0 | 6.7 | 0.0 | 5.0 | N | 8.3 | 0.0 | 0.0 | 0.0 | 39.0 | 0.0 | 0.0 | 0.0 | 8.3 |
| 2026-05-04 | 02:50:00 | 2026-05-04 02:51:01 | 8.3 | 90.0 | 1017.0 | 0.0 | 6.8 | 0.0 | 5.0 | N | 8.3 | 0.0 | 0.0 | 0.0 | 39.0 | 0.0 | 0.0 | 0.0 | 8.3 |
| 2026-05-04 | 02:45:00 | 2026-05-04 02:46:01 | 8.4 | 90.0 | 1017.0 | 0.0 | 6.8 | 0.0 | 5.0 | N | 8.4 | 0.0 | 0.0 | 0.0 | 39.0 | 0.0 | 0.0 | 0.0 | 8.4 |
| 2026-05-04 | 02:40:00 | 2026-05-04 02:41:01 | 8.4 | 90.0 | 1017.0 | 0.0 | 6.8 | 0.0 | 5.0 | N | 8.4 | 0.0 | 0.0 | 0.0 | 39.0 | 0.0 | 0.0 | 0.0 | 8.4 |
| 2026-05-04 | 02:35:00 | 2026-05-04 02:36:01 | 8.4 | 89.0 | 1017.0 | 0.0 | 6.7 | 0.0 | 5.0 | N | 8.4 | 0.0 | 0.0 | 0.0 | 39.0 | 0.0 | 0.0 | 0.0 | 8.4 |
| 2026-05-04 | 02:30:00 | 2026-05-04 02:31:01 | 8.4 | 89.0 | 1017.0 | 0.0 | 6.7 | 0.0 | 5.0 | N | 8.4 | 0.0 | 0.0 | 0.0 | 39.0 | 0.0 | 0.0 | 0.0 | 8.4 |
| 2026-05-04 | 02:25:00 | 2026-05-04 02:26:01 | 8.5 | 89.0 | 1017.1 | 0.0 | 6.8 | 0.0 | 5.0 | N | 8.5 | 0.0 | 0.0 | 0.0 | 39.0 | 0.0 | 0.0 | 0.0 | 8.5 |
| 2026-05-04 | 02:20:00 | 2026-05-04 02:21:01 | 8.6 | 89.0 | 1017.0 | 0.0 | 6.8 | 0.0 | 5.0 | N | 8.6 | 0.0 | 0.0 | 0.0 | 39.0 | 0.0 | 0.0 | 0.0 | 8.6 |
| 2026-05-04 | 02:15:00 | 2026-05-04 02:16:01 | 8.6 | 89.0 | 1017.0 | 0.0 | 6.9 | 0.0 | 5.0 | N | 8.6 | 0.0 | 0.0 | 0.0 | 39.0 | 0.0 | 0.0 | 0.0 | 8.6 |
| 2026-05-04 | 02:10:00 | 2026-05-04 02:11:02 | 8.7 | 88.0 | 1017.0 | 0.0 | 6.8 | 0.0 | 5.0 | N | 8.7 | 0.0 | 0.0 | 0.0 | 39.0 | 0.0 | 0.0 | 0.0 | 8.7 |
| 2026-05-04 | 02:05:00 | 2026-05-04 02:06:02 | 8.7 | 88.0 | 1017.0 | 0.0 | 6.8 | 0.0 | 5.0 | N | 8.7 | 0.0 | 0.0 | 0.0 | 39.0 | 0.0 | 0.0 | 0.0 | 8.7 |
| 2026-05-04 | 02:00:00 | 2026-05-04 02:01:02 | 8.8 | 88.0 | 1017.0 | 0.0 | 6.9 | 0.0 | 5.0 | N | 8.8 | 0.0 | 0.0 | 0.0 | 39.0 | 0.0 | 0.0 | 0.0 | 8.8 |
| 2026-05-04 | 01:55:00 | 2026-05-04 01:56:02 | 8.9 | 88.0 | 1017.0 | 0.0 | 7.0 | 0.0 | 5.0 | N | 8.9 | 0.0 | 0.0 | 0.0 | 39.0 | 0.0 | 0.0 | 0.0 | 8.9 |
| 2026-05-04 | 01:50:00 | 2026-05-04 01:51:02 | 8.9 | 88.0 | 1016.9 | 0.0 | 7.1 | 0.0 | 5.0 | N | 8.9 | 0.0 | 0.0 | 0.0 | 39.0 | 0.0 | 0.0 | 0.0 | 8.9 |
| 2026-05-04 | 01:45:00 | 2026-05-04 01:46:02 | 9.1 | 88.0 | 1017.0 | 0.0 | 7.2 | 0.0 | 5.0 | N | 9.1 | 0.0 | 0.0 | 0.0 | 39.0 | 0.0 | 0.0 | 0.0 | 9.1 |
| 2026-05-04 | 01:40:00 | 2026-05-04 01:41:02 | 9.1 | 88.0 | 1016.9 | 0.0 | 7.2 | 0.0 | 5.0 | N | 9.1 | 0.0 | 0.0 | 0.0 | 39.0 | 0.0 | 0.0 | 0.0 | 9.1 |
| 2026-05-04 | 01:35:00 | 2026-05-04 01:36:02 | 9.1 | 88.0 | 1016.9 | 0.0 | 7.2 | 0.0 | 5.0 | N | 9.1 | 0.0 | 0.0 | 0.0 | 39.0 | 0.0 | 0.0 | 0.0 | 9.1 |
| 2026-05-04 | 01:30:00 | 2026-05-04 01:31:02 | 9.2 | 88.0 | 1016.9 | 0.0 | 7.3 | 0.0 | 5.0 | N | 9.2 | 0.0 | 0.0 | 0.0 | 39.0 | 0.0 | 0.0 | 0.0 | 9.2 |
| 2026-05-04 | 01:25:00 | 2026-05-04 01:26:02 | 9.2 | 88.0 | 1016.8 | 0.0 | 7.3 | 0.0 | 5.0 | N | 9.2 | 0.0 | 0.0 | 0.0 | 39.0 | 0.0 | 0.0 | 0.0 | 9.2 |
| 2026-05-04 | 01:20:00 | 2026-05-04 01:21:02 | 9.2 | 88.0 | 1016.8 | 0.0 | 7.3 | 0.0 | 5.0 | N | 9.2 | 0.0 | 0.0 | 0.0 | 39.0 | 0.0 | 0.0 | 0.0 | 9.2 |
| 2026-05-04 | 01:15:00 | 2026-05-04 01:16:02 | 9.2 | 87.0 | 1016.8 | 0.0 | 7.2 | 0.0 | 5.0 | N | 9.2 | 0.0 | 0.0 | 0.0 | 39.0 | 0.0 | 0.0 | 0.0 | 9.2 |
| 2026-05-04 | 01:10:00 | 2026-05-04 01:11:02 | 9.3 | 87.0 | 1016.8 | 0.0 | 7.2 | 0.0 | 5.0 | N | 9.3 | 0.0 | 0.0 | 0.0 | 39.0 | 0.0 | 0.0 | 0.0 | 9.3 |
| 2026-05-04 | 01:05:00 | 2026-05-04 01:06:02 | 9.4 | 87.0 | 1016.8 | 0.0 | 7.3 | 0.0 | 5.0 | N | 9.4 | 0.0 | 0.0 | 0.0 | 39.0 | 0.0 | 0.0 | 0.0 | 9.4 |
| 2026-05-04 | 01:00:00 | 2026-05-04 01:01:02 | 9.4 | 86.0 | 1016.9 | 0.0 | 7.2 | 0.0 | 5.0 | N | 9.4 | 0.0 | 0.0 | 0.0 | 39.0 | 0.0 | 0.0 | 0.0 | 9.4 |
| 2026-05-04 | 00:55:00 | 2026-05-04 00:56:02 | 9.6 | 87.0 | 1016.9 | 0.0 | 7.5 | 0.0 | 5.0 | N | 9.6 | 0.0 | 0.0 | 0.0 | 39.0 | 0.0 | 0.0 | 0.0 | 9.6 |
| 2026-05-04 | 00:50:00 | 2026-05-04 00:51:02 | 9.6 | 86.0 | 1016.9 | 0.0 | 7.4 | 0.0 | 5.0 | N | 9.6 | 0.0 | 0.0 | 0.0 | 39.0 | 0.0 | 0.0 | 0.0 | 9.6 |
| 2026-05-04 | 00:45:00 | 2026-05-04 00:46:02 | 9.7 | 86.0 | 1016.9 | 0.0 | 7.4 | 0.0 | 5.0 | N | 9.7 | 0.0 | 0.0 | 0.0 | 39.0 | 0.0 | 0.0 | 0.0 | 9.7 |
| 2026-05-04 | 00:40:00 | 2026-05-04 00:41:02 | 9.8 | 86.0 | 1016.9 | 0.0 | 7.5 | 0.0 | 5.0 | N | 9.8 | 0.0 | 0.0 | 0.0 | 39.0 | 0.0 | 0.0 | 0.0 | 9.8 |
| 2026-05-04 | 00:35:00 | 2026-05-04 00:36:02 | 9.8 | 86.0 | 1016.8 | 0.0 | 7.6 | 0.0 | 5.0 | N | 9.8 | 0.0 | 0.0 | 0.0 | 39.0 | 0.0 | 0.0 | 0.0 | 9.8 |
| 2026-05-04 | 00:30:00 | 2026-05-04 00:31:01 | 9.9 | 85.0 | 1016.8 | 0.0 | 7.5 | 0.0 | 5.0 | N | 9.9 | 0.0 | 0.0 | 0.0 | 39.0 | 0.0 | 0.0 | 0.0 | 9.9 |
| 2026-05-04 | 00:25:00 | 2026-05-04 00:26:01 | 10.1 | 85.0 | 1016.9 | 0.0 | 7.6 | 0.0 | 5.0 | N | 10.1 | 0.0 | 0.0 | 0.0 | 39.0 | 0.0 | 0.0 | 0.0 | 10.1 |
| 2026-05-04 | 00:20:00 | 2026-05-04 00:21:01 | 10.1 | 85.0 | 1016.9 | 0.0 | 7.7 | 0.0 | 5.0 | N | 10.1 | 0.0 | 0.0 | 0.0 | 39.0 | 0.0 | 0.0 | 0.0 | 10.1 |
| 2026-05-04 | 00:15:00 | 2026-05-04 00:16:02 | 10.2 | 85.0 | 1016.9 | 0.0 | 7.8 | 0.0 | 5.0 | N | 10.2 | 0.0 | 0.0 | 0.0 | 39.0 | 0.0 | 0.0 | 0.0 | 10.2 |
| 2026-05-04 | 00:10:00 | 2026-05-04 00:11:01 | 10.3 | 84.0 | 1016.9 | 0.0 | 7.7 | 0.0 | 5.0 | N | 10.3 | 0.0 | 0.0 | 0.0 | 39.0 | 0.0 | 0.0 | 0.0 | 10.3 |
| 2026-05-04 | 00:05:00 | 2026-05-04 00:06:02 | 10.4 | 84.0 | 1016.9 | 0.0 | 7.9 | 0.0 | 5.0 | N | 10.4 | 0.0 | 0.0 | 0.0 | 39.0 | 0.0 | 0.0 | 0.0 | 10.4 |
| 2026-05-04 | 00:00:00 | 2026-05-04 00:01:02 | 10.6 | 84.0 | 1016.9 | 0.0 | 8.0 | 0.0 | 5.0 | N | 10.6 | 0.0 | 0.0 | 0.0 | 39.0 | 3.7 | 0.0 | 0.0 | 10.6 |